sensor_id;sensor_type;location;lat;lon;timestamp;temperature;humidity
22986;DHT22;11659;51.092;7.080;2022-09-13T00:00:42;16.30;99.90
22986;DHT22;11659;51.092;7.080;2022-09-13T00:03:10;16.30;99.90
22986;DHT22;11659;51.092;7.080;2022-09-13T00:05:37;16.30;99.90
22986;DHT22;11659;51.092;7.080;2022-09-13T00:08:04;16.30;99.90
22986;DHT22;11659;51.092;7.080;2022-09-13T00:10:33;16.20;99.90
22986;DHT22;11659;51.092;7.080;2022-09-13T00:12:59;16.20;99.90
22986;DHT22;11659;51.092;7.080;2022-09-13T00:15:26;16.20;99.90
22986;DHT22;11659;51.092;7.080;2022-09-13T00:17:52;16.20;99.90
22986;DHT22;11659;51.092;7.080;2022-09-13T00:20:20;16.10;99.90
22986;DHT22;11659;51.092;7.080;2022-09-13T00:22:46;16.10;99.90
22986;DHT22;11659;51.092;7.080;2022-09-13T00:25:11;16.10;99.90
22986;DHT22;11659;51.092;7.080;2022-09-13T00:27:37;16.00;99.90
22986;DHT22;11659;51.092;7.080;2022-09-13T00:30:05;16.00;99.90
22986;DHT22;11659;51.092;7.080;2022-09-13T00:32:32;16.00;99.90
22986;DHT22;11659;51.092;7.080;2022-09-13T00:34:58;15.90;99.90
22986;DHT22;11659;51.092;7.080;2022-09-13T00:37:25;15.90;99.90
22986;DHT22;11659;51.092;7.080;2022-09-13T00:39:52;15.90;99.90
22986;DHT22;11659;51.092;7.080;2022-09-13T00:42:23;15.90;99.90
22986;DHT22;11659;51.092;7.080;2022-09-13T00:44:56;15.90;99.90
22986;DHT22;11659;51.092;7.080;2022-09-13T00:47:25;15.90;99.90
22986;DHT22;11659;51.092;7.080;2022-09-13T00:49:56;15.90;99.90
22986;DHT22;11659;51.092;7.080;2022-09-13T00:52:28;15.90;99.90
22986;DHT22;11659;51.092;7.080;2022-09-13T00:54:59;15.90;99.90
22986;DHT22;11659;51.092;7.080;2022-09-13T00:57:27;15.90;99.90
22986;DHT22;11659;51.092;7.080;2022-09-13T00:59:57;15.90;99.90
22986;DHT22;11659;51.092;7.080;2022-09-13T01:02:24;15.90;99.90
22986;DHT22;11659;51.092;7.080;2022-09-13T01:04:51;15.90;99.90
22986;DHT22;11659;51.092;7.080;2022-09-13T01:07:17;15.90;99.90
22986;DHT22;11659;51.092;7.080;2022-09-13T01:09:47;15.90;99.90
22986;DHT22;11659;51.092;7.080;2022-09-13T01:12:22;15.90;99.90
22986;DHT22;11659;51.092;7.080;2022-09-13T01:14:50;15.90;99.90
22986;DHT22;11659;51.092;7.080;2022-09-13T01:17:17;15.90;99.90
22986;DHT22;11659;51.092;7.080;2022-09-13T01:19:43;15.90;99.90
22986;DHT22;11659;51.092;7.080;2022-09-13T01:25:46;15.90;99.90
22986;DHT22;11659;51.092;7.080;2022-09-13T01:28:33;15.90;99.90
22986;DHT22;11659;51.092;7.080;2022-09-13T01:31:07;15.90;99.90
22986;DHT22;11659;51.092;7.080;2022-09-13T01:33:45;15.90;99.90
22986;DHT22;11659;51.092;7.080;2022-09-13T01:36:27;15.80;99.90
22986;DHT22;11659;51.092;7.080;2022-09-13T01:39:01;15.90;99.90
22986;DHT22;11659;51.092;7.080;2022-09-13T01:41:54;15.80;99.90
22986;DHT22;11659;51.092;7.080;2022-09-13T01:44:41;15.80;99.90
22986;DHT22;11659;51.092;7.080;2022-09-13T01:47:18;15.80;99.90
22986;DHT22;11659;51.092;7.080;2022-09-13T01:50:06;15.80;99.90
22986;DHT22;11659;51.092;7.080;2022-09-13T01:52:42;15.80;99.90
22986;DHT22;11659;51.092;7.080;2022-09-13T01:55:15;15.70;99.90
22986;DHT22;11659;51.092;7.080;2022-09-13T01:57:47;15.70;99.90
22986;DHT22;11659;51.092;7.080;2022-09-13T02:00:16;15.70;99.90
22986;DHT22;11659;51.092;7.080;2022-09-13T02:02:47;15.70;99.90
22986;DHT22;11659;51.092;7.080;2022-09-13T02:05:21;15.60;99.90
22986;DHT22;11659;51.092;7.080;2022-09-13T02:07:54;15.60;99.90
22986;DHT22;11659;51.092;7.080;2022-09-13T02:10:26;15.60;99.90
22986;DHT22;11659;51.092;7.080;2022-09-13T02:12:54;15.60;99.90
22986;DHT22;11659;51.092;7.080;2022-09-13T02:15:24;15.60;99.90
22986;DHT22;11659;51.092;7.080;2022-09-13T02:17:59;15.60;99.90
22986;DHT22;11659;51.092;7.080;2022-09-13T02:20:29;15.50;99.90
22986;DHT22;11659;51.092;7.080;2022-09-13T02:23:02;15.50;99.90
22986;DHT22;11659;51.092;7.080;2022-09-13T02:25:31;15.50;99.90
22986;DHT22;11659;51.092;7.080;2022-09-13T02:28:02;15.50;99.90
22986;DHT22;11659;51.092;7.080;2022-09-13T02:30:30;15.50;99.90
22986;DHT22;11659;51.092;7.080;2022-09-13T02:33:01;15.50;99.90
22986;DHT22;11659;51.092;7.080;2022-09-13T02:35:31;15.50;99.90
22986;DHT22;11659;51.092;7.080;2022-09-13T02:38:05;15.50;99.90
22986;DHT22;11659;51.092;7.080;2022-09-13T02:40:38;15.50;99.90
22986;DHT22;11659;51.092;7.080;2022-09-13T02:43:09;15.50;99.90
22986;DHT22;11659;51.092;7.080;2022-09-13T02:45:41;15.50;99.90
22986;DHT22;11659;51.092;7.080;2022-09-13T02:48:17;15.50;99.90
22986;DHT22;11659;51.092;7.080;2022-09-13T02:50:51;15.60;99.90
22986;DHT22;11659;51.092;7.080;2022-09-13T02:53:25;15.60;99.90
22986;DHT22;11659;51.092;7.080;2022-09-13T02:55:59;15.60;99.90
22986;DHT22;11659;51.092;7.080;2022-09-13T02:58:32;15.60;99.90
22986;DHT22;11659;51.092;7.080;2022-09-13T03:01:00;15.70;99.90
22986;DHT22;11659;51.092;7.080;2022-09-13T03:03:28;15.70;99.90
22986;DHT22;11659;51.092;7.080;2022-09-13T03:05:54;15.70;99.90
22986;DHT22;11659;51.092;7.080;2022-09-13T03:08:20;15.70;99.90
22986;DHT22;11659;51.092;7.080;2022-09-13T03:10:53;15.80;99.90
22986;DHT22;11659;51.092;7.080;2022-09-13T03:13:39;15.80;99.90
22986;DHT22;11659;51.092;7.080;2022-09-13T03:16:23;15.90;99.90
22986;DHT22;11659;51.092;7.080;2022-09-13T03:19:03;15.90;99.90
22986;DHT22;11659;51.092;7.080;2022-09-13T03:21:45;15.90;99.90
22986;DHT22;11659;51.092;7.080;2022-09-13T03:24:21;16.00;99.90
22986;DHT22;11659;51.092;7.080;2022-09-13T03:27:02;15.90;99.90
22986;DHT22;11659;51.092;7.080;2022-09-13T03:29:38;16.00;99.90
22986;DHT22;11659;51.092;7.080;2022-09-13T03:32:14;16.00;99.90
22986;DHT22;11659;51.092;7.080;2022-09-13T03:34:48;16.00;99.90
22986;DHT22;11659;51.092;7.080;2022-09-13T03:37:24;16.00;99.90
22986;DHT22;11659;51.092;7.080;2022-09-13T03:39:55;16.00;99.90
22986;DHT22;11659;51.092;7.080;2022-09-13T03:42:24;16.00;99.90
22986;DHT22;11659;51.092;7.080;2022-09-13T03:44:54;16.00;99.90
22986;DHT22;11659;51.092;7.080;2022-09-13T03:47:23;16.00;99.90
22986;DHT22;11659;51.092;7.080;2022-09-13T03:49:52;16.00;99.90
22986;DHT22;11659;51.092;7.080;2022-09-13T03:52:18;16.00;99.90
22986;DHT22;11659;51.092;7.080;2022-09-13T03:54:44;16.00;99.90
22986;DHT22;11659;51.092;7.080;2022-09-13T03:57:13;16.00;99.90
22986;DHT22;11659;51.092;7.080;2022-09-13T03:59:43;16.00;99.90
22986;DHT22;11659;51.092;7.080;2022-09-13T04:02:10;16.00;99.90
22986;DHT22;11659;51.092;7.080;2022-09-13T04:04:37;16.00;99.90
22986;DHT22;11659;51.092;7.080;2022-09-13T04:07:05;15.90;99.90
22986;DHT22;11659;51.092;7.080;2022-09-13T04:09:31;15.90;99.90
22986;DHT22;11659;51.092;7.080;2022-09-13T04:11:57;15.90;99.90
22986;DHT22;11659;51.092;7.080;2022-09-13T04:14:23;15.90;99.90
22986;DHT22;11659;51.092;7.080;2022-09-13T04:16:51;15.90;99.90
22986;DHT22;11659;51.092;7.080;2022-09-13T04:19:17;15.90;99.90
22986;DHT22;11659;51.092;7.080;2022-09-13T04:21:45;15.90;99.90
22986;DHT22;11659;51.092;7.080;2022-09-13T04:24:13;15.90;99.90
22986;DHT22;11659;51.092;7.080;2022-09-13T04:26:39;15.90;99.90
22986;DHT22;11659;51.092;7.080;2022-09-13T04:29:05;15.90;99.90
22986;DHT22;11659;51.092;7.080;2022-09-13T04:31:31;15.90;99.90
22986;DHT22;11659;51.092;7.080;2022-09-13T04:33:57;15.90;99.90
22986;DHT22;11659;51.092;7.080;2022-09-13T04:36:24;15.90;99.90
22986;DHT22;11659;51.092;7.080;2022-09-13T04:38:50;15.90;99.90
22986;DHT22;11659;51.092;7.080;2022-09-13T04:41:18;15.90;99.90
22986;DHT22;11659;51.092;7.080;2022-09-13T04:43:48;15.90;99.90
22986;DHT22;11659;51.092;7.080;2022-09-13T04:46:14;15.90;99.90
22986;DHT22;11659;51.092;7.080;2022-09-13T04:48:41;15.90;99.90
22986;DHT22;11659;51.092;7.080;2022-09-13T04:51:07;15.90;99.90
22986;DHT22;11659;51.092;7.080;2022-09-13T04:53:33;15.90;99.90
22986;DHT22;11659;51.092;7.080;2022-09-13T04:55:59;15.90;99.90
22986;DHT22;11659;51.092;7.080;2022-09-13T04:58:27;15.90;99.90
22986;DHT22;11659;51.092;7.080;2022-09-13T05:00:53;15.90;99.90
22986;DHT22;11659;51.092;7.080;2022-09-13T05:03:21;15.90;99.90
22986;DHT22;11659;51.092;7.080;2022-09-13T05:05:47;15.90;99.90
22986;DHT22;11659;51.092;7.080;2022-09-13T05:08:13;15.90;99.90
22986;DHT22;11659;51.092;7.080;2022-09-13T05:10:39;15.90;99.90
22986;DHT22;11659;51.092;7.080;2022-09-13T05:13:05;15.90;99.90
22986;DHT22;11659;51.092;7.080;2022-09-13T05:15:32;15.90;99.90
22986;DHT22;11659;51.092;7.080;2022-09-13T05:17:58;16.00;99.90
22986;DHT22;11659;51.092;7.080;2022-09-13T05:20:24;15.90;99.90
22986;DHT22;11659;51.092;7.080;2022-09-13T05:22:50;16.00;99.90
22986;DHT22;11659;51.092;7.080;2022-09-13T05:25:16;15.90;99.90
22986;DHT22;11659;51.092;7.080;2022-09-13T05:27:42;16.00;99.90
22986;DHT22;11659;51.092;7.080;2022-09-13T05:30:10;16.00;99.90
22986;DHT22;11659;51.092;7.080;2022-09-13T05:32:38;16.00;99.90
22986;DHT22;11659;51.092;7.080;2022-09-13T05:35:04;16.00;99.90
22986;DHT22;11659;51.092;7.080;2022-09-13T05:37:30;16.00;99.90
22986;DHT22;11659;51.092;7.080;2022-09-13T05:39:56;15.90;99.90
22986;DHT22;11659;51.092;7.080;2022-09-13T05:42:22;15.90;99.90
22986;DHT22;11659;51.092;7.080;2022-09-13T05:44:48;15.90;99.90
22986;DHT22;11659;51.092;7.080;2022-09-13T05:47:14;15.90;99.90
22986;DHT22;11659;51.092;7.080;2022-09-13T05:49:41;15.90;99.90
22986;DHT22;11659;51.092;7.080;2022-09-13T05:52:07;15.90;99.90
22986;DHT22;11659;51.092;7.080;2022-09-13T05:54:33;15.90;99.90
22986;DHT22;11659;51.092;7.080;2022-09-13T05:56:59;15.90;99.90
22986;DHT22;11659;51.092;7.080;2022-09-13T05:59:25;15.90;99.90
22986;DHT22;11659;51.092;7.080;2022-09-13T06:01:50;15.90;99.90
22986;DHT22;11659;51.092;7.080;2022-09-13T06:04:16;15.90;99.90
22986;DHT22;11659;51.092;7.080;2022-09-13T06:06:44;16.00;99.90
22986;DHT22;11659;51.092;7.080;2022-09-13T06:09:10;16.00;99.90
22986;DHT22;11659;51.092;7.080;2022-09-13T06:11:36;16.00;99.90
22986;DHT22;11659;51.092;7.080;2022-09-13T06:14:02;16.10;99.90
22986;DHT22;11659;51.092;7.080;2022-09-13T06:16:28;16.10;99.90
22986;DHT22;11659;51.092;7.080;2022-09-13T06:18:54;16.10;99.90
22986;DHT22;11659;51.092;7.080;2022-09-13T06:21:21;16.10;99.90
22986;DHT22;11659;51.092;7.080;2022-09-13T06:23:50;16.20;99.90
22986;DHT22;11659;51.092;7.080;2022-09-13T06:26:18;16.20;99.90
22986;DHT22;11659;51.092;7.080;2022-09-13T06:28:48;16.20;99.90
22986;DHT22;11659;51.092;7.080;2022-09-13T06:31:16;16.30;99.90
22986;DHT22;11659;51.092;7.080;2022-09-13T06:33:43;16.30;99.90
22986;DHT22;11659;51.092;7.080;2022-09-13T06:36:12;16.30;99.90
22986;DHT22;11659;51.092;7.080;2022-09-13T06:38:43;16.40;99.90
22986;DHT22;11659;51.092;7.080;2022-09-13T06:41:12;16.40;99.90
22986;DHT22;11659;51.092;7.080;2022-09-13T06:43:39;16.40;99.90
22986;DHT22;11659;51.092;7.080;2022-09-13T06:46:06;16.50;99.90
22986;DHT22;11659;51.092;7.080;2022-09-13T06:48:34;16.50;99.90
22986;DHT22;11659;51.092;7.080;2022-09-13T06:51:00;16.50;99.90
22986;DHT22;11659;51.092;7.080;2022-09-13T06:53:27;16.60;99.90
22986;DHT22;11659;51.092;7.080;2022-09-13T06:56:01;16.60;99.90
22986;DHT22;11659;51.092;7.080;2022-09-13T06:58:29;16.70;99.90
22986;DHT22;11659;51.092;7.080;2022-09-13T07:01:05;16.70;99.90
22986;DHT22;11659;51.092;7.080;2022-09-13T07:03:35;16.80;99.90
22986;DHT22;11659;51.092;7.080;2022-09-13T07:06:09;16.80;99.90
22986;DHT22;11659;51.092;7.080;2022-09-13T07:08:35;16.90;99.90
22986;DHT22;11659;51.092;7.080;2022-09-13T07:11:01;17.10;99.90
22986;DHT22;11659;51.092;7.080;2022-09-13T07:13:29;17.00;99.90
22986;DHT22;11659;51.092;7.080;2022-09-13T07:15:54;17.00;99.90
22986;DHT22;11659;51.092;7.080;2022-09-13T07:18:21;17.00;99.90
22986;DHT22;11659;51.092;7.080;2022-09-13T07:20:47;17.10;99.90
22986;DHT22;11659;51.092;7.080;2022-09-13T07:23:12;17.10;99.90
22986;DHT22;11659;51.092;7.080;2022-09-13T07:25:38;17.10;99.90
22986;DHT22;11659;51.092;7.080;2022-09-13T07:28:04;17.20;99.90
22986;DHT22;11659;51.092;7.080;2022-09-13T07:30:32;17.20;99.90
22986;DHT22;11659;51.092;7.080;2022-09-13T07:32:58;17.30;99.90
22986;DHT22;11659;51.092;7.080;2022-09-13T07:35:24;17.40;99.90
22986;DHT22;11659;51.092;7.080;2022-09-13T07:37:50;17.40;99.90
22986;DHT22;11659;51.092;7.080;2022-09-13T07:40:16;17.50;99.90
22986;DHT22;11659;51.092;7.080;2022-09-13T07:42:42;17.60;99.90
22986;DHT22;11659;51.092;7.080;2022-09-13T07:45:09;17.70;99.90
22986;DHT22;11659;51.092;7.080;2022-09-13T07:47:38;17.80;99.90
22986;DHT22;11659;51.092;7.080;2022-09-13T07:50:05;17.90;99.90
22986;DHT22;11659;51.092;7.080;2022-09-13T07:52:31;18.00;99.90
22986;DHT22;11659;51.092;7.080;2022-09-13T07:54:59;18.10;99.90
22986;DHT22;11659;51.092;7.080;2022-09-13T07:57:26;18.20;99.90
22986;DHT22;11659;51.092;7.080;2022-09-13T07:59:52;18.20;99.90
22986;DHT22;11659;51.092;7.080;2022-09-13T08:02:18;18.30;99.90
22986;DHT22;11659;51.092;7.080;2022-09-13T08:04:45;18.40;99.90
22986;DHT22;11659;51.092;7.080;2022-09-13T08:07:11;18.50;99.90
22986;DHT22;11659;51.092;7.080;2022-09-13T08:09:39;18.60;99.90
22986;DHT22;11659;51.092;7.080;2022-09-13T08:12:05;18.70;99.90
22986;DHT22;11659;51.092;7.080;2022-09-13T08:14:31;18.80;99.90
22986;DHT22;11659;51.092;7.080;2022-09-13T08:16:57;18.80;99.90
22986;DHT22;11659;51.092;7.080;2022-09-13T08:19:23;19.00;99.90
22986;DHT22;11659;51.092;7.080;2022-09-13T08:21:50;19.10;99.90
22986;DHT22;11659;51.092;7.080;2022-09-13T08:24:18;19.20;99.90
22986;DHT22;11659;51.092;7.080;2022-09-13T08:26:44;19.30;99.90
22986;DHT22;11659;51.092;7.080;2022-09-13T08:29:11;19.40;99.90
22986;DHT22;11659;51.092;7.080;2022-09-13T08:31:37;19.50;99.90
22986;DHT22;11659;51.092;7.080;2022-09-13T08:34:03;19.60;99.90
22986;DHT22;11659;51.092;7.080;2022-09-13T08:36:29;19.60;99.90
22986;DHT22;11659;51.092;7.080;2022-09-13T08:38:58;19.70;99.90
22986;DHT22;11659;51.092;7.080;2022-09-13T08:41:47;19.80;99.90
22986;DHT22;11659;51.092;7.080;2022-09-13T08:44:21;19.90;99.90
22986;DHT22;11659;51.092;7.080;2022-09-13T08:46:53;20.00;99.90
22986;DHT22;11659;51.092;7.080;2022-09-13T08:49:24;20.10;99.90
22986;DHT22;11659;51.092;7.080;2022-09-13T08:51:53;20.20;99.90
22986;DHT22;11659;51.092;7.080;2022-09-13T08:54:22;20.30;99.90
22986;DHT22;11659;51.092;7.080;2022-09-13T08:56:52;20.30;99.90
22986;DHT22;11659;51.092;7.080;2022-09-13T09:02:42;20.60;99.90
22986;DHT22;11659;51.092;7.080;2022-09-13T09:05:15;20.70;99.90
22986;DHT22;11659;51.092;7.080;2022-09-13T09:07:45;20.80;99.90
22986;DHT22;11659;51.092;7.080;2022-09-13T09:10:16;20.90;99.90
22986;DHT22;11659;51.092;7.080;2022-09-13T09:12:46;21.00;99.90
22986;DHT22;11659;51.092;7.080;2022-09-13T09:15:17;21.00;99.90
22986;DHT22;11659;51.092;7.080;2022-09-13T09:17:53;21.10;99.90
22986;DHT22;11659;51.092;7.080;2022-09-13T09:20:25;21.10;99.90
22986;DHT22;11659;51.092;7.080;2022-09-13T09:22:53;21.20;99.90
22986;DHT22;11659;51.092;7.080;2022-09-13T09:25:23;21.30;99.90
22986;DHT22;11659;51.092;7.080;2022-09-13T09:27:49;21.30;99.90
22986;DHT22;11659;51.092;7.080;2022-09-13T09:30:15;21.40;99.90
22986;DHT22;11659;51.092;7.080;2022-09-13T09:33:06;21.40;99.90
22986;DHT22;11659;51.092;7.080;2022-09-13T09:35:44;21.50;99.90
22986;DHT22;11659;51.092;7.080;2022-09-13T09:38:35;21.60;99.90
22986;DHT22;11659;51.092;7.080;2022-09-13T09:41:11;21.70;99.90
22986;DHT22;11659;51.092;7.080;2022-09-13T09:43:41;21.80;99.90
22986;DHT22;11659;51.092;7.080;2022-09-13T09:46:10;21.90;99.90
22986;DHT22;11659;51.092;7.080;2022-09-13T09:48:42;22.00;99.90
22986;DHT22;11659;51.092;7.080;2022-09-13T09:51:10;22.10;99.90
22986;DHT22;11659;51.092;7.080;2022-09-13T09:53:41;22.20;99.90
22986;DHT22;11659;51.092;7.080;2022-09-13T09:56:20;22.20;99.90
22986;DHT22;11659;51.092;7.080;2022-09-13T09:58:47;22.30;99.90
22986;DHT22;11659;51.092;7.080;2022-09-13T10:01:18;22.30;99.90
22986;DHT22;11659;51.092;7.080;2022-09-13T10:03:51;22.40;99.90
22986;DHT22;11659;51.092;7.080;2022-09-13T10:06:20;22.40;99.90
22986;DHT22;11659;51.092;7.080;2022-09-13T10:08:54;22.50;99.90
22986;DHT22;11659;51.092;7.080;2022-09-13T10:11:23;22.60;99.90
22986;DHT22;11659;51.092;7.080;2022-09-13T10:14:00;22.80;99.90
22986;DHT22;11659;51.092;7.080;2022-09-13T10:16:28;22.90;99.90
22986;DHT22;11659;51.092;7.080;2022-09-13T10:19:21;23.00;99.90
22986;DHT22;11659;51.092;7.080;2022-09-13T10:21:59;23.10;99.90
22986;DHT22;11659;51.092;7.080;2022-09-13T10:24:26;23.20;99.70
22986;DHT22;11659;51.092;7.080;2022-09-13T10:26:55;23.20;99.50
22986;DHT22;11659;51.092;7.080;2022-09-13T10:29:23;23.30;99.50
22986;DHT22;11659;51.092;7.080;2022-09-13T10:31:52;23.30;99.50
22986;DHT22;11659;51.092;7.080;2022-09-13T10:34:21;23.40;99.50
22986;DHT22;11659;51.092;7.080;2022-09-13T10:36:52;23.40;99.60
22986;DHT22;11659;51.092;7.080;2022-09-13T10:39:20;23.60;99.50
22986;DHT22;11659;51.092;7.080;2022-09-13T10:41:50;23.70;99.20
22986;DHT22;11659;51.092;7.080;2022-09-13T10:44:30;23.70;99.00
22986;DHT22;11659;51.092;7.080;2022-09-13T10:47:01;23.70;98.80
22986;DHT22;11659;51.092;7.080;2022-09-13T10:49:38;23.70;98.50
22986;DHT22;11659;51.092;7.080;2022-09-13T10:52:32;23.70;98.50
22986;DHT22;11659;51.092;7.080;2022-09-13T10:55:23;23.80;98.60
22986;DHT22;11659;51.092;7.080;2022-09-13T10:57:52;23.90;98.70
22986;DHT22;11659;51.092;7.080;2022-09-13T11:00:21;24.00;98.40
22986;DHT22;11659;51.092;7.080;2022-09-13T11:03:06;24.00;98.20
22986;DHT22;11659;51.092;7.080;2022-09-13T11:05:40;24.20;97.80
22986;DHT22;11659;51.092;7.080;2022-09-13T11:08:20;24.30;97.60
22986;DHT22;11659;51.092;7.080;2022-09-13T11:11:00;24.40;97.50
22986;DHT22;11659;51.092;7.080;2022-09-13T11:13:35;24.50;97.30
22986;DHT22;11659;51.092;7.080;2022-09-13T11:16:24;24.60;97.20
22986;DHT22;11659;51.092;7.080;2022-09-13T11:19:18;24.60;97.20
22986;DHT22;11659;51.092;7.080;2022-09-13T11:21:58;24.70;97.20
22986;DHT22;11659;51.092;7.080;2022-09-13T11:24:40;24.60;97.20
22986;DHT22;11659;51.092;7.080;2022-09-13T11:27:16;24.70;97.20
22986;DHT22;11659;51.092;7.080;2022-09-13T11:32:42;24.70;96.60
22986;DHT22;11659;51.092;7.080;2022-09-13T11:35:29;24.70;96.60
22986;DHT22;11659;51.092;7.080;2022-09-13T11:38:07;24.70;96.50
22986;DHT22;11659;51.092;7.080;2022-09-13T11:40:45;24.70;96.50
22986;DHT22;11659;51.092;7.080;2022-09-13T11:43:26;24.80;96.60
22986;DHT22;11659;51.092;7.080;2022-09-13T11:46:00;24.80;96.50
22986;DHT22;11659;51.092;7.080;2022-09-13T11:48:49;25.00;96.60
22986;DHT22;11659;51.092;7.080;2022-09-13T11:51:22;25.10;96.30
22986;DHT22;11659;51.092;7.080;2022-09-13T11:54:00;25.20;95.80
22986;DHT22;11659;51.092;7.080;2022-09-13T11:56:34;25.30;95.50
22986;DHT22;11659;51.092;7.080;2022-09-13T11:59:11;25.40;95.30
22986;DHT22;11659;51.092;7.080;2022-09-13T12:01:44;25.50;95.20
22986;DHT22;11659;51.092;7.080;2022-09-13T12:04:17;25.60;95.30
22986;DHT22;11659;51.092;7.080;2022-09-13T12:06:49;25.80;95.40
22986;DHT22;11659;51.092;7.080;2022-09-13T12:09:21;26.00;95.30
22986;DHT22;11659;51.092;7.080;2022-09-13T12:11:51;26.20;95.30
22986;DHT22;11659;51.092;7.080;2022-09-13T12:14:20;26.50;95.30
22986;DHT22;11659;51.092;7.080;2022-09-13T12:16:49;26.80;95.00
22986;DHT22;11659;51.092;7.080;2022-09-13T12:19:21;27.10;94.40
22986;DHT22;11659;51.092;7.080;2022-09-13T12:21:50;27.30;93.90
22986;DHT22;11659;51.092;7.080;2022-09-13T12:24:20;27.50;93.70
22986;DHT22;11659;51.092;7.080;2022-09-13T12:26:56;27.70;92.70
22986;DHT22;11659;51.092;7.080;2022-09-13T12:29:28;28.00;92.40
22986;DHT22;11659;51.092;7.080;2022-09-13T12:31:59;28.20;92.00
22986;DHT22;11659;51.092;7.080;2022-09-13T12:34:30;28.50;91.60
22986;DHT22;11659;51.092;7.080;2022-09-13T12:40:19;28.80;90.80
22986;DHT22;11659;51.092;7.080;2022-09-13T12:43:00;28.90;90.30
22986;DHT22;11659;51.092;7.080;2022-09-13T12:45:44;28.90;89.90
22986;DHT22;11659;51.092;7.080;2022-09-13T12:48:22;28.90;89.80
22986;DHT22;11659;51.092;7.080;2022-09-13T12:51:05;28.80;89.80
22986;DHT22;11659;51.092;7.080;2022-09-13T12:53:51;28.70;90.10
22986;DHT22;11659;51.092;7.080;2022-09-13T12:56:41;28.50;90.30
22986;DHT22;11659;51.092;7.080;2022-09-13T12:59:31;28.50;90.30
22986;DHT22;11659;51.092;7.080;2022-09-13T13:02:01;28.30;90.30
22986;DHT22;11659;51.092;7.080;2022-09-13T13:04:32;28.10;90.50
22986;DHT22;11659;51.092;7.080;2022-09-13T13:07:02;28.00;90.50
22986;DHT22;11659;51.092;7.080;2022-09-13T13:09:37;27.70;90.70
22986;DHT22;11659;51.092;7.080;2022-09-13T13:12:08;27.60;90.90
22986;DHT22;11659;51.092;7.080;2022-09-13T13:14:46;27.40;91.10
22986;DHT22;11659;51.092;7.080;2022-09-13T13:17:39;27.20;91.40
22986;DHT22;11659;51.092;7.080;2022-09-13T13:23:24;26.90;91.70
22986;DHT22;11659;51.092;7.080;2022-09-13T13:26:04;26.80;92.10
22986;DHT22;11659;51.092;7.080;2022-09-13T13:28:51;26.70;92.00
22986;DHT22;11659;51.092;7.080;2022-09-13T13:31:41;26.70;92.10
22986;DHT22;11659;51.092;7.080;2022-09-13T13:34:38;26.60;91.90
22986;DHT22;11659;51.092;7.080;2022-09-13T13:37:20;26.50;92.10
22986;DHT22;11659;51.092;7.080;2022-09-13T13:42:47;26.40;92.20
22986;DHT22;11659;51.092;7.080;2022-09-13T13:45:21;26.40;92.10
22986;DHT22;11659;51.092;7.080;2022-09-13T13:47:55;26.40;92.20
22986;DHT22;11659;51.092;7.080;2022-09-13T13:50:31;26.40;92.40
22986;DHT22;11659;51.092;7.080;2022-09-13T13:52:59;26.30;92.40
22986;DHT22;11659;51.092;7.080;2022-09-13T13:55:43;26.30;92.50
22986;DHT22;11659;51.092;7.080;2022-09-13T13:58:35;26.20;92.50
22986;DHT22;11659;51.092;7.080;2022-09-13T14:01:03;26.20;92.70
22986;DHT22;11659;51.092;7.080;2022-09-13T14:03:48;26.00;92.80
22986;DHT22;11659;51.092;7.080;2022-09-13T14:06:16;26.00;93.10
22986;DHT22;11659;51.092;7.080;2022-09-13T14:08:54;25.90;93.20
22986;DHT22;11659;51.092;7.080;2022-09-13T14:11:32;25.90;93.40
22986;DHT22;11659;51.092;7.080;2022-09-13T14:14:15;25.90;93.50
22986;DHT22;11659;51.092;7.080;2022-09-13T14:16:53;25.90;93.50
22986;DHT22;11659;51.092;7.080;2022-09-13T14:19:26;25.90;93.50
22986;DHT22;11659;51.092;7.080;2022-09-13T14:22:10;25.90;93.60
22986;DHT22;11659;51.092;7.080;2022-09-13T14:24:39;26.00;93.70
22986;DHT22;11659;51.092;7.080;2022-09-13T14:27:13;26.00;93.70
22986;DHT22;11659;51.092;7.080;2022-09-13T14:29:44;26.00;93.80
22986;DHT22;11659;51.092;7.080;2022-09-13T14:32:14;26.00;93.60
22986;DHT22;11659;51.092;7.080;2022-09-13T14:34:50;26.00;93.60
22986;DHT22;11659;51.092;7.080;2022-09-13T14:37:19;25.90;93.60
22986;DHT22;11659;51.092;7.080;2022-09-13T14:39:54;25.90;93.70
22986;DHT22;11659;51.092;7.080;2022-09-13T14:42:20;25.90;94.00
22986;DHT22;11659;51.092;7.080;2022-09-13T14:44:47;25.90;93.80
22986;DHT22;11659;51.092;7.080;2022-09-13T14:47:19;25.80;93.80
22986;DHT22;11659;51.092;7.080;2022-09-13T14:49:51;25.70;94.00
22986;DHT22;11659;51.092;7.080;2022-09-13T14:52:24;25.70;94.10
22986;DHT22;11659;51.092;7.080;2022-09-13T14:54:55;25.70;94.10
22986;DHT22;11659;51.092;7.080;2022-09-13T14:57:25;25.70;94.40
22986;DHT22;11659;51.092;7.080;2022-09-13T14:59:56;25.70;94.40
22986;DHT22;11659;51.092;7.080;2022-09-13T15:02:26;25.70;94.40
22986;DHT22;11659;51.092;7.080;2022-09-13T15:04:56;25.70;94.30
22986;DHT22;11659;51.092;7.080;2022-09-13T15:07:28;25.60;94.30
22986;DHT22;11659;51.092;7.080;2022-09-13T15:10:05;25.60;94.40
22986;DHT22;11659;51.092;7.080;2022-09-13T15:12:32;25.60;94.50
22986;DHT22;11659;51.092;7.080;2022-09-13T15:15:31;25.60;94.70
22986;DHT22;11659;51.092;7.080;2022-09-13T15:17:58;25.60;94.70
22986;DHT22;11659;51.092;7.080;2022-09-13T15:20:26;25.60;94.80
22986;DHT22;11659;51.092;7.080;2022-09-13T15:22:53;25.60;94.70
22986;DHT22;11659;51.092;7.080;2022-09-13T15:25:23;25.70;94.50
22986;DHT22;11659;51.092;7.080;2022-09-13T15:27:50;25.70;94.40
22986;DHT22;11659;51.092;7.080;2022-09-13T15:30:24;25.70;94.30
22986;DHT22;11659;51.092;7.080;2022-09-13T15:33:05;25.70;94.30
22986;DHT22;11659;51.092;7.080;2022-09-13T15:35:40;25.60;94.20
22986;DHT22;11659;51.092;7.080;2022-09-13T15:38:23;25.50;94.10
22986;DHT22;11659;51.092;7.080;2022-09-13T15:41:00;25.50;94.20
22986;DHT22;11659;51.092;7.080;2022-09-13T15:43:27;25.40;94.30
22986;DHT22;11659;51.092;7.080;2022-09-13T15:45:55;25.30;94.40
22986;DHT22;11659;51.092;7.080;2022-09-13T15:48:26;25.20;94.40
22986;DHT22;11659;51.092;7.080;2022-09-13T15:51:07;25.20;94.50
22986;DHT22;11659;51.092;7.080;2022-09-13T15:53:34;25.10;94.60
22986;DHT22;11659;51.092;7.080;2022-09-13T15:56:00;25.00;94.60
22986;DHT22;11659;51.092;7.080;2022-09-13T15:58:26;24.90;94.70
22986;DHT22;11659;51.092;7.080;2022-09-13T16:00:52;24.90;94.90
22986;DHT22;11659;51.092;7.080;2022-09-13T16:03:19;24.90;95.00
22986;DHT22;11659;51.092;7.080;2022-09-13T16:05:46;24.80;95.10
22986;DHT22;11659;51.092;7.080;2022-09-13T16:08:12;24.70;95.20
22986;DHT22;11659;51.092;7.080;2022-09-13T16:10:38;24.70;95.30
22986;DHT22;11659;51.092;7.080;2022-09-13T16:13:04;24.60;95.40
22986;DHT22;11659;51.092;7.080;2022-09-13T16:15:30;24.60;95.60